createdAt,value
2022-09-01T00:00:31.365Z,52.53
2022-09-01T00:01:31.367Z,48.34
2022-09-01T00:02:31.409Z,51.72
2022-09-01T00:03:31.373Z,50.11
2022-09-01T00:04:31.395Z,55.91
2022-09-01T00:05:31.341Z,55.11
2022-09-01T00:06:31.329Z,49.63
2022-09-01T00:07:31.322Z,55.43
2022-09-01T00:08:31.301Z,56.24
2022-09-01T00:09:32.321Z,49.47
2022-09-01T00:10:31.293Z,52.21
2022-09-01T00:11:31.297Z,52.21
2022-09-01T00:12:31.269Z,54.46
2022-09-01T00:13:31.273Z,50.43
2022-09-01T00:14:31.283Z,53.33
2022-09-01T00:15:31.291Z,54.95
2022-09-01T00:16:31.252Z,55.91
2022-09-01T00:17:31.251Z,50.60
2022-09-01T00:18:31.246Z,56.40
2022-09-01T00:19:31.257Z,55.59
2022-09-01T00:20:31.242Z,55.11
2022-09-01T00:21:31.226Z,49.47
2022-09-01T00:22:31.214Z,55.91
2022-09-01T00:23:31.216Z,52.53
2022-09-01T00:24:31.201Z,49.79
2022-09-01T00:25:31.212Z,53.82
2022-09-01T00:26:31.181Z,55.91
2022-09-01T00:27:31.288Z,55.91
2022-09-01T00:28:31.173Z,55.75
2022-09-01T00:29:31.167Z,53.17
2022-09-01T00:30:31.158Z,54.62
2022-09-01T00:31:31.187Z,53.82
2022-09-01T00:32:31.138Z,58.97
2022-09-01T00:33:31.125Z,57.20
2022-09-01T00:34:31.129Z,60.10
2022-09-01T00:35:31.130Z,55.27
2022-09-01T00:36:31.113Z,54.46
2022-09-01T00:37:31.109Z,58.97
2022-09-01T00:38:31.107Z,54.95
2022-09-01T00:39:31.104Z,54.95
2022-09-01T00:40:31.130Z,53.82
2022-09-01T00:41:31.102Z,49.79
2022-09-01T00:42:31.073Z,53.33
2022-09-01T00:43:31.077Z,53.66
2022-09-01T00:44:31.787Z,58.49
2022-09-01T00:45:31.054Z,51.88
2022-09-01T00:46:31.163Z,54.14
2022-09-01T00:47:31.050Z,55.43
2022-09-01T00:48:31.043Z,56.07
2022-09-01T00:49:31.456Z,56.07
2022-09-01T00:50:31.026Z,53.82
2022-09-01T00:51:31.030Z,57.36
2022-09-01T00:52:31.005Z,49.95
2022-09-01T00:53:31.006Z,56.24
2022-09-01T00:54:31.002Z,54.62
2022-09-01T00:55:31.097Z,53.33
2022-09-01T00:56:30.994Z,53.01
2022-09-01T00:57:30.985Z,55.43
2022-09-01T00:58:30.974Z,56.40
2022-09-01T00:59:30.961Z,56.88
2022-09-01T01:00:30.958Z,56.07
2022-09-01T01:01:31.021Z,53.82
2022-09-01T01:02:31.033Z,53.33
2022-09-01T01:03:30.938Z,58.81
2022-09-01T01:04:30.922Z,52.05
2022-09-01T01:05:30.930Z,49.95
2022-09-01T01:06:32.116Z,52.53
2022-09-01T01:07:30.915Z,57.20
2022-09-01T01:08:30.911Z,56.40
2022-09-01T01:09:30.906Z,53.17
2022-09-01T01:10:31.886Z,54.95
2022-09-01T01:11:30.881Z,58.65
2022-09-01T01:12:30.905Z,58.65
2022-09-01T01:13:30.870Z,55.43
2022-09-01T01:14:30.870Z,60.91
2022-09-01T01:15:30.858Z,54.30
2022-09-01T01:16:30.886Z,52.69
2022-09-01T01:17:31.861Z,54.62
2022-09-01T01:18:30.850Z,58.17
2022-09-01T01:19:30.835Z,56.88
2022-09-01T01:20:30.834Z,57.20
2022-09-01T01:21:30.826Z,53.33
2022-09-01T01:22:30.821Z,54.30
2022-09-01T01:23:30.821Z,51.24
2022-09-01T01:24:30.805Z,57.52
2022-09-01T01:25:30.796Z,55.91
2022-09-01T01:26:30.791Z,53.50
2022-09-01T01:27:30.789Z,54.79
2022-09-01T01:28:30.782Z,58.65
2022-09-01T01:29:30.790Z,54.95
2022-09-01T01:30:30.818Z,52.37
2022-09-01T01:31:30.761Z,55.59
2022-09-01T01:32:30.758Z,56.88
2022-09-01T01:33:30.769Z,54.62
2022-09-01T01:34:30.741Z,58.01
2022-09-01T01:35:30.729Z,57.52
2022-09-01T01:36:30.737Z,54.46
2022-09-01T01:37:30.738Z,56.88
2022-09-01T01:38:30.731Z,57.20
2022-09-01T01:39:30.730Z,55.75
2022-09-01T01:40:30.756Z,57.85
2022-09-01T01:41:30.701Z,54.95
2022-09-01T01:42:30.693Z,55.59
2022-09-01T01:43:30.701Z,56.88
2022-09-01T01:44:30.690Z,54.30
2022-09-01T01:45:30.671Z,54.95
2022-09-01T01:46:30.721Z,56.56
2022-09-01T01:47:30.661Z,55.75
2022-09-01T01:48:30.682Z,58.49
2022-09-01T01:49:30.660Z,54.79
2022-09-01T01:50:30.649Z,60.42
2022-09-01T01:51:30.642Z,56.24
2022-09-01T01:52:30.637Z,57.69
2022-09-01T01:53:30.637Z,57.20
2022-09-01T01:54:30.638Z,57.20
2022-09-01T01:55:30.609Z,60.26
2022-09-01T01:56:31.608Z,63.81
2022-09-01T01:57:30.605Z,57.85
2022-09-01T01:58:30.629Z,57.36
2022-09-01T01:59:30.588Z,52.85
2022-09-01T02:00:30.988Z,60.42
2022-09-01T02:01:30.656Z,56.88
2022-09-01T02:02:30.620Z,56.40
2022-09-01T02:03:30.564Z,58.97
2022-09-01T02:04:30.561Z,54.46
2022-09-01T02:05:30.553Z,60.75
2022-09-01T02:06:30.559Z,59.46
2022-09-01T02:07:33.004Z,56.56
2022-09-01T02:08:30.536Z,54.95
2022-09-01T02:09:30.537Z,63.65
2022-09-01T02:10:30.516Z,58.01
2022-09-01T02:11:30.517Z,56.88
2022-09-01T02:12:30.513Z,54.46
2022-09-01T02:13:30.505Z,53.33
2022-09-01T02:14:30.501Z,59.30
2022-09-01T02:15:30.492Z,58.33
2022-09-01T02:16:30.518Z,50.92
2022-09-01T02:17:30.485Z,61.23
2022-09-01T02:18:30.465Z,58.81
2022-09-01T02:19:31.478Z,60.10
2022-09-01T02:20:30.465Z,58.65
2022-09-01T02:21:30.458Z,56.40
2022-09-01T02:22:30.448Z,53.50
2022-09-01T02:23:30.465Z,57.69
2022-09-01T02:24:30.436Z,53.82
2022-09-01T02:25:30.433Z,55.43
2022-09-01T02:26:30.423Z,55.75
2022-09-01T02:27:30.418Z,59.78
2022-09-01T02:28:30.420Z,58.01
2022-09-01T02:29:30.404Z,58.17
2022-09-01T02:30:30.442Z,58.33
2022-09-01T02:31:30.392Z,58.33
2022-09-01T02:32:30.388Z,54.95
2022-09-01T02:33:30.380Z,53.50
2022-09-01T02:34:30.376Z,55.27
2022-09-01T02:35:30.372Z,57.69
2022-09-01T02:36:30.374Z,52.53
2022-09-01T02:37:30.349Z,56.40
2022-09-01T02:38:30.350Z,58.33
2022-09-01T02:39:30.340Z,58.97
2022-09-01T02:40:30.415Z,57.69
2022-09-01T02:41:30.340Z,55.91
2022-09-01T02:42:30.316Z,56.24
2022-09-01T02:43:30.320Z,58.01
2022-09-01T02:44:30.317Z,55.59
2022-09-01T02:45:30.357Z,60.10
2022-09-01T02:46:30.289Z,57.52
2022-09-01T02:47:30.288Z,56.24
2022-09-01T02:48:31.288Z,53.98
2022-09-01T02:49:30.281Z,59.78
2022-09-01T02:50:30.292Z,56.88
2022-09-01T02:51:30.272Z,59.62
2022-09-01T02:52:30.268Z,58.65
2022-09-01T02:53:30.260Z,59.94
2022-09-01T02:54:30.252Z,57.85
2022-09-01T02:55:30.257Z,61.07
2022-09-01T02:56:30.249Z,59.30
2022-09-01T02:57:30.236Z,64.45
2022-09-01T02:58:30.219Z,60.59
2022-09-01T02:59:30.217Z,60.75
2022-09-01T03:00:30.218Z,59.30
2022-09-01T03:01:30.442Z,57.04
2022-09-01T03:02:30.196Z,59.62
2022-09-01T03:03:30.196Z,58.17
2022-09-01T03:04:30.203Z,62.20
2022-09-01T03:05:30.186Z,60.42
2022-09-01T03:06:30.188Z,64.29
2022-09-01T03:07:30.163Z,59.78
2022-09-01T03:08:30.160Z,59.78
2022-09-01T03:09:30.161Z,57.52
2022-09-01T03:10:30.144Z,60.59
2022-09-01T03:11:30.135Z,61.07
2022-09-01T03:12:30.148Z,60.75
2022-09-01T03:13:30.131Z,59.78
2022-09-01T03:14:30.135Z,63.16
2022-09-01T03:15:30.116Z,61.07
2022-09-01T03:16:30.173Z,62.68
2022-09-01T03:17:30.121Z,62.36
2022-09-01T03:18:30.099Z,61.55
2022-09-01T03:19:30.092Z,60.59
2022-09-01T03:20:30.076Z,59.14
2022-09-01T03:21:31.084Z,60.10
2022-09-01T03:22:30.075Z,62.84
2022-09-01T03:23:30.204Z,63.00
2022-09-01T03:24:30.064Z,63.16
2022-09-01T03:25:30.057Z,61.23
2022-09-01T03:26:30.055Z,61.71
2022-09-01T03:27:30.064Z,63.65
2022-09-01T03:28:30.046Z,67.35
2022-09-01T03:29:30.031Z,60.91
2022-09-01T03:30:30.025Z,63.49
2022-09-01T03:31:31.469Z,61.87
2022-09-01T03:32:30.011Z,61.87
2022-09-01T03:33:30.011Z,60.59
2022-09-01T03:34:30.025Z,61.07
2022-09-01T03:35:29.987Z,59.30
2022-09-01T03:36:29.983Z,61.23
2022-09-01T03:37:29.971Z,58.65
2022-09-01T03:38:29.983Z,58.01
2022-09-01T03:39:29.964Z,59.94
2022-09-01T03:40:29.982Z,59.62
2022-09-01T03:41:29.935Z,61.23
2022-09-01T03:42:29.927Z,60.42
2022-09-01T03:43:35.291Z,61.87
2022-09-01T03:44:30.941Z,59.94
2022-09-01T03:45:29.977Z,61.71
2022-09-01T03:46:34.234Z,62.52
2022-09-01T03:47:30.908Z,60.10
2022-09-01T03:48:29.904Z,59.30
2022-09-01T03:49:29.900Z,59.94
2022-09-01T03:50:29.883Z,60.59
2022-09-01T03:51:29.881Z,59.46
2022-09-01T03:52:29.878Z,61.39
2022-09-01T03:53:29.868Z,60.10
2022-09-01T03:54:29.876Z,61.07
2022-09-01T03:55:29.852Z,60.42
2022-09-01T03:56:29.855Z,60.75
2022-09-01T03:57:29.843Z,62.84
2022-09-01T03:58:29.853Z,60.59
2022-09-01T03:59:29.875Z,59.30
2022-09-01T04:00:29.831Z,63.49
2022-09-01T04:01:29.918Z,61.23
2022-09-01T04:02:29.895Z,61.23
2022-09-01T04:03:31.159Z,60.91
2022-09-01T04:04:29.787Z,58.65
2022-09-01T04:05:29.807Z,57.69
2022-09-01T04:06:29.780Z,60.42
2022-09-01T04:07:29.779Z,59.62
2022-09-01T04:08:33.051Z,60.59
2022-09-01T04:09:29.764Z,61.23
2022-09-01T04:10:29.764Z,59.94
2022-09-01T04:11:29.747Z,60.10
2022-09-01T04:12:29.749Z,61.39
2022-09-01T04:13:29.736Z,62.04
2022-09-01T04:14:30.528Z,60.91
2022-09-01T04:15:29.752Z,60.26
2022-09-01T04:16:29.812Z,60.91
2022-09-01T04:17:30.645Z,60.75
2022-09-01T04:18:30.727Z,61.39
2022-09-01T04:19:29.703Z,61.55
2022-09-01T04:20:29.699Z,62.68
2022-09-01T04:21:29.700Z,62.20
2022-09-01T04:22:29.688Z,61.71
2022-09-01T04:23:29.675Z,61.55
2022-09-01T04:24:29.670Z,60.59
2022-09-01T04:25:29.666Z,61.55
2022-09-01T04:26:29.676Z,60.91
2022-09-01T04:27:29.650Z,60.10
2022-09-01T04:28:29.647Z,61.23
2022-09-01T04:29:29.634Z,60.10
2022-09-01T04:30:29.619Z,61.71
2022-09-01T04:31:29.648Z,62.04
2022-09-01T04:32:29.623Z,62.36
2022-09-01T04:33:29.603Z,63.33
2022-09-01T04:34:29.599Z,63.49
2022-09-01T04:35:29.599Z,62.84
2022-09-01T04:36:29.605Z,61.71
2022-09-01T04:37:29.576Z,62.84
2022-09-01T04:38:29.573Z,60.42
2022-09-01T04:39:29.567Z,61.23
2022-09-01T04:40:29.613Z,62.20
2022-09-01T04:41:29.568Z,62.04
2022-09-01T04:42:29.904Z,61.23
2022-09-01T04:43:29.528Z,60.26
2022-09-01T04:44:29.539Z,62.52
2022-09-01T04:45:29.554Z,61.07
2022-09-01T04:46:29.519Z,62.36
2022-09-01T04:47:29.517Z,65.26
2022-09-01T04:48:29.563Z,63.65
2022-09-01T04:49:29.501Z,63.65
2022-09-01T04:50:29.488Z,62.68
2022-09-01T04:51:29.488Z,63.00
2022-09-01T04:52:29.497Z,62.84
2022-09-01T04:53:30.473Z,60.59
2022-09-01T04:54:29.472Z,59.94
2022-09-01T04:55:29.473Z,60.59
2022-09-01T04:56:29.463Z,60.59
2022-09-01T04:57:29.468Z,62.20
2022-09-01T04:58:29.451Z,61.55
2022-09-01T04:59:29.445Z,62.04
2022-09-01T05:00:29.440Z,68.64
2022-09-01T05:01:29.483Z,70.42
2022-09-01T05:02:29.451Z,68.64
2022-09-01T05:03:29.425Z,68.96
2022-09-01T05:04:29.401Z,71.54
2022-09-01T05:05:29.393Z,71.38
2022-09-01T05:06:29.393Z,61.39
2022-09-01T05:07:29.416Z,60.91
2022-09-01T05:08:32.739Z,60.26
2022-09-01T05:09:29.369Z,58.81
2022-09-01T05:10:29.364Z,61.07
2022-09-01T05:11:29.348Z,61.55
2022-09-01T05:12:29.357Z,60.75
2022-09-01T05:13:29.372Z,61.23
2022-09-01T05:14:29.336Z,60.91
2022-09-01T05:15:29.333Z,60.42
2022-09-01T05:16:29.398Z,58.81
2022-09-01T05:17:29.319Z,61.23
2022-09-01T05:18:29.316Z,60.42
2022-09-01T05:19:29.309Z,62.04
2022-09-01T05:20:29.296Z,58.33
2022-09-01T05:21:29.288Z,58.81
2022-09-01T05:22:29.280Z,58.17
2022-09-01T05:23:29.301Z,59.30
2022-09-01T05:24:29.277Z,60.75
2022-09-01T05:25:29.268Z,59.62
2022-09-01T05:26:29.260Z,59.62
2022-09-01T05:27:29.256Z,61.23
2022-09-01T05:28:29.256Z,59.46
2022-09-01T05:29:29.249Z,60.42
2022-09-01T05:30:29.240Z,62.84
2022-09-01T05:31:29.338Z,59.14
2022-09-01T05:32:29.220Z,59.46
2022-09-01T05:33:29.204Z,59.46
2022-09-01T05:34:29.209Z,60.26
2022-09-01T05:35:32.800Z,58.97
2022-09-01T05:36:29.213Z,61.39
2022-09-01T05:37:29.189Z,59.94
2022-09-01T05:38:29.181Z,60.59
2022-09-01T05:39:29.163Z,60.75
2022-09-01T05:40:29.244Z,59.14
2022-09-01T05:41:29.180Z,60.10
2022-09-01T05:42:29.149Z,59.94
2022-09-01T05:43:29.152Z,58.97
2022-09-01T05:44:29.134Z,58.81
2022-09-01T05:45:36.432Z,59.94
2022-09-01T05:46:30.346Z,58.97
2022-09-01T05:47:29.125Z,59.94
2022-09-01T05:48:29.112Z,59.62
2022-09-01T05:49:29.101Z,59.14
2022-09-01T05:50:29.096Z,59.62
2022-09-01T05:51:46.480Z,60.42
2022-09-01T05:52:31.100Z,58.49
2022-09-01T05:53:29.088Z,58.81
2022-09-01T05:54:29.098Z,58.49
2022-09-01T05:55:29.080Z,59.62
2022-09-01T05:56:29.092Z,59.14
2022-09-01T05:57:34.744Z,59.14
2022-09-01T05:59:22.509Z,58.33
2022-09-01T05:59:31.048Z,61.55
2022-09-01T06:00:29.035Z,58.97
2022-09-01T06:01:29.085Z,64.94
2022-09-01T06:02:29.100Z,67.51
2022-09-01T06:03:29.058Z,65.26
2022-09-01T06:04:29.033Z,65.58
2022-09-01T06:05:29.013Z,57.20
2022-09-01T06:06:39.993Z,58.65
2022-09-01T06:07:30.016Z,59.14
2022-09-01T06:08:28.999Z,58.01
2022-09-01T06:09:29.004Z,57.20
2022-09-01T06:10:28.977Z,58.17
2022-09-01T06:11:28.977Z,56.40
2022-09-01T06:12:28.967Z,58.49
2022-09-01T06:13:28.959Z,60.10
2022-09-01T06:14:28.982Z,58.49
2022-09-01T06:15:28.961Z,56.72
2022-09-01T06:16:28.994Z,56.24
2022-09-01T06:17:28.942Z,58.01
2022-09-01T06:18:28.936Z,57.36
2022-09-01T06:19:30.701Z,57.36
2022-09-01T06:20:28.949Z,57.69
2022-09-01T06:21:28.917Z,57.52
2022-09-01T06:22:28.911Z,63.97
2022-09-01T06:23:28.916Z,62.20
2022-09-01T06:24:28.919Z,58.17
2022-09-01T06:25:28.900Z,58.49
2022-09-01T06:26:28.896Z,57.69
2022-09-01T06:27:28.880Z,61.55
2022-09-01T06:28:28.876Z,58.65
2022-09-01T06:29:28.868Z,57.36
2022-09-01T06:30:28.856Z,57.20
2022-09-01T06:31:28.877Z,56.88
2022-09-01T06:32:28.843Z,58.33
2022-09-01T06:33:28.836Z,59.30
2022-09-01T06:34:28.836Z,56.88
2022-09-01T06:35:28.844Z,56.24
2022-09-01T06:36:32.043Z,56.88
2022-09-01T06:37:29.799Z,56.56
2022-09-01T06:38:28.801Z,57.04
2022-09-01T06:39:28.796Z,56.40
2022-09-01T06:40:28.866Z,58.49
2022-09-01T06:41:28.785Z,55.11
2022-09-01T06:42:28.772Z,57.04
2022-09-01T06:43:28.764Z,54.46
2022-09-01T06:44:28.755Z,55.91
2022-09-01T06:45:28.752Z,56.07
2022-09-01T06:46:28.773Z,57.04
2022-09-01T06:47:28.733Z,56.24
2022-09-01T06:48:28.723Z,56.40
2022-09-01T06:49:28.716Z,57.69
2022-09-01T06:51:30.724Z,56.40
2022-09-01T06:53:31.564Z,57.04
2022-09-01T06:53:34.459Z,56.07
2022-09-01T06:54:30.684Z,55.43
2022-09-01T06:55:28.708Z,56.56
2022-09-01T06:56:31.966Z,57.36
2022-09-01T06:58:30.656Z,55.27
2022-09-01T06:59:32.587Z,58.33
2022-09-01T07:00:30.643Z,59.14
2022-09-01T07:01:29.258Z,58.01
2022-09-01T07:02:28.648Z,55.27
2022-09-01T07:03:28.617Z,58.01
2022-09-01T07:04:28.624Z,58.33
2022-09-01T07:08:30.612Z,55.27
2022-09-01T07:09:47.027Z,55.91
2022-09-01T07:10:29.576Z,54.95
2022-09-01T07:12:30.552Z,56.40
2022-09-01T07:13:28.564Z,54.46
2022-09-01T07:14:28.873Z,56.56
2022-09-01T07:16:34.634Z,55.75
2022-09-01T07:17:29.551Z,55.75
2022-09-01T07:18:28.886Z,55.75
2022-09-01T07:19:48.422Z,56.56
2022-09-01T07:20:30.504Z,56.88
2022-09-01T07:22:06.748Z,55.27
2022-09-01T07:23:03.006Z,55.11
2022-09-01T07:23:46.495Z,53.50
2022-09-01T07:24:31.837Z,55.59
2022-09-01T07:25:34.916Z,54.46
2022-09-01T07:26:30.471Z,54.79
2022-09-01T07:27:35.600Z,55.27
2022-09-01T07:28:36.030Z,53.01
2022-09-01T07:29:29.463Z,52.53
2022-09-01T07:30:28.443Z,54.30
2022-09-01T07:32:47.198Z,55.11
2022-09-01T07:33:48.024Z,50.11
2022-09-01T07:34:38.712Z,51.24
2022-09-01T07:35:30.412Z,58.65
2022-09-01T07:36:29.066Z,54.30
2022-09-01T07:43:32.819Z,54.30
2022-09-01T07:44:28.343Z,56.72
2022-09-01T07:45:28.949Z,51.72
2022-09-01T07:46:43.894Z,51.72
2022-09-01T07:49:02.624Z,55.75
2022-09-01T07:49:30.760Z,52.53
2022-09-01T07:51:38.024Z,54.62
2022-09-01T07:52:30.327Z,53.50
2022-09-01T07:53:29.328Z,50.27
2022-09-01T07:54:28.367Z,53.66
2022-09-01T07:55:28.275Z,52.21
2022-09-01T07:56:28.277Z,53.98
2022-09-01T07:57:28.259Z,51.72
2022-09-01T07:58:29.273Z,51.88
2022-09-01T07:59:28.240Z,53.50
2022-09-01T08:00:30.197Z,52.53
2022-09-01T08:01:28.272Z,57.85
2022-09-01T08:02:28.261Z,64.13
2022-09-01T08:03:28.228Z,48.66
2022-09-01T08:04:28.221Z,50.92
2022-09-01T08:05:28.213Z,50.92
2022-09-01T08:06:28.339Z,58.81
2022-09-01T08:07:28.196Z,53.98
2022-09-01T08:08:29.455Z,51.88
2022-09-01T08:09:38.263Z,49.31
2022-09-01T08:10:30.181Z,49.63
2022-09-01T08:11:51.490Z,50.11
2022-09-01T08:12:30.163Z,50.60
2022-09-01T08:13:29.173Z,50.60
2022-09-01T08:14:33.749Z,52.21
2022-09-01T08:16:39.351Z,51.88
2022-09-01T08:17:34.465Z,50.27
2022-09-01T08:18:48.102Z,52.69
2022-09-01T08:19:29.128Z,51.40
2022-09-01T08:20:28.127Z,52.69
2022-09-01T08:21:28.111Z,51.56
2022-09-01T08:22:28.100Z,51.08
2022-09-01T08:23:29.103Z,52.69
2022-09-01T08:24:28.092Z,53.82
2022-09-01T08:25:28.103Z,55.11
2022-09-01T08:26:28.099Z,53.17
2022-09-01T08:27:28.072Z,51.40
2022-09-01T08:28:28.510Z,56.07
2022-09-01T08:29:28.063Z,51.24
2022-09-01T08:30:28.059Z,54.30
2022-09-01T08:31:30.588Z,53.66
2022-09-01T08:32:28.047Z,55.75
2022-09-01T08:33:28.035Z,53.98
2022-09-01T08:34:28.042Z,53.33
2022-09-01T08:35:28.028Z,52.53
2022-09-01T08:36:28.022Z,58.33
2022-09-01T08:37:28.013Z,51.40
2022-09-01T08:38:28.988Z,56.24
2022-09-01T08:39:28.004Z,54.14
2022-09-01T08:40:28.038Z,53.01
2022-09-01T08:41:28.633Z,51.56
2022-09-01T08:42:31.838Z,53.98
2022-09-01T08:43:27.983Z,48.82
2022-09-01T08:44:27.971Z,48.02
2022-09-01T08:45:27.963Z,48.34
2022-09-01T08:46:28.035Z,51.72
2022-09-01T08:47:32.405Z,50.43
2022-09-01T08:49:23.189Z,55.75
2022-09-01T08:49:30.720Z,50.11
2022-09-01T08:50:27.935Z,49.63
2022-09-01T08:51:27.931Z,52.37
2022-09-01T08:52:27.925Z,49.47
2022-09-01T08:53:27.957Z,49.47
2022-09-01T08:54:29.699Z,54.30
2022-09-01T08:55:27.905Z,50.92
2022-09-01T08:56:27.899Z,49.79
2022-09-01T08:57:27.903Z,51.88
2022-09-01T08:58:27.904Z,49.15
2022-09-01T08:59:27.891Z,52.05
2022-09-01T09:00:27.879Z,49.15
2022-09-01T09:01:27.923Z,51.08
2022-09-01T09:02:27.932Z,52.05
2022-09-01T09:03:40.408Z,49.15
2022-09-01T09:04:28.871Z,48.34
2022-09-01T09:05:27.871Z,49.79
2022-09-01T09:06:27.867Z,49.79
2022-09-01T09:07:27.847Z,52.53
2022-09-01T09:08:29.607Z,50.43
2022-09-01T09:09:33.476Z,47.37
2022-09-01T09:10:29.834Z,50.11
2022-09-01T09:11:27.836Z,49.15
2022-09-01T09:12:27.893Z,52.69
2022-09-01T09:13:27.818Z,48.34
2022-09-01T09:14:27.827Z,50.11
2022-09-01T09:15:27.846Z,49.47
2022-09-01T09:16:27.841Z,50.60
2022-09-01T09:17:27.799Z,50.60
2022-09-01T09:18:38.965Z,51.08
2022-09-01T09:19:28.783Z,48.66
2022-09-01T09:20:27.779Z,49.63
2022-09-01T09:21:27.771Z,53.01
2022-09-01T09:22:27.787Z,49.15
2022-09-01T09:23:27.767Z,52.05
2022-09-01T09:24:29.043Z,49.31
2022-09-01T09:25:28.754Z,51.72
2022-09-01T09:26:42.061Z,53.82
2022-09-01T09:27:28.746Z,50.76
2022-09-01T09:28:27.738Z,55.43
2022-09-01T09:29:27.740Z,53.01
2022-09-01T09:30:27.742Z,50.92
2022-09-01T09:31:28.526Z,50.27
2022-09-01T09:32:50.437Z,62.52
2022-09-01T09:33:48.571Z,59.30
2022-09-01T09:34:29.714Z,59.30
2022-09-01T09:35:27.724Z,53.66
2022-09-01T09:36:27.712Z,49.95
2022-09-01T09:37:27.700Z,51.08
2022-09-01T09:38:27.691Z,51.40
2022-09-01T09:39:27.949Z,51.88
2022-09-01T09:40:27.760Z,48.66
2022-09-01T09:41:27.777Z,46.89
2022-09-01T09:42:31.249Z,49.15
2022-09-01T09:43:29.682Z,51.08
2022-09-01T09:44:28.657Z,49.63
2022-09-01T09:45:27.695Z,51.88
2022-09-01T09:46:27.714Z,51.72
2022-09-01T09:47:43.149Z,51.56
2022-09-01T09:48:29.653Z,52.37
2022-09-01T09:49:34.881Z,54.62
2022-09-01T09:50:28.659Z,51.56
2022-09-01T09:51:28.950Z,53.66
2022-09-01T09:52:28.638Z,51.08
2022-09-01T09:53:27.634Z,60.10
2022-09-01T09:54:27.622Z,57.69
2022-09-01T09:55:27.618Z,53.82
2022-09-01T09:56:27.599Z,59.14
2022-09-01T09:57:27.607Z,52.21
2022-09-01T09:58:27.589Z,59.94
2022-09-01T09:59:46.222Z,51.08
2022-09-01T10:00:29.583Z,54.95
2022-09-01T10:01:27.664Z,51.72
2022-09-01T10:02:28.025Z,53.66
2022-09-01T10:03:29.128Z,54.30
2022-09-01T10:04:28.589Z,52.21
2022-09-01T10:05:27.549Z,54.14
2022-09-01T10:06:27.565Z,55.27
2022-09-01T10:07:27.544Z,55.11
2022-09-01T10:08:27.536Z,54.95
2022-09-01T10:09:27.529Z,54.62
2022-09-01T10:10:27.520Z,61.07
2022-09-01T10:11:33.484Z,61.07
2022-09-01T10:12:29.508Z,59.94
2022-09-01T10:13:27.615Z,56.56
2022-09-01T10:14:51.800Z,55.11
2022-09-01T10:15:30.174Z,54.46
2022-09-01T10:16:27.492Z,52.69
2022-09-01T10:17:27.526Z,51.08
2022-09-01T10:18:29.439Z,52.21
2022-09-01T10:19:31.152Z,54.62
2022-09-01T10:20:29.456Z,53.33
2022-09-01T10:21:27.460Z,56.24
2022-09-01T10:22:27.457Z,51.88
2022-09-01T10:23:27.505Z,53.50
2022-09-01T10:24:30.954Z,50.92
2022-09-01T10:25:29.496Z,53.33
2022-09-01T10:26:28.436Z,52.53
2022-09-01T10:27:27.433Z,55.59
2022-09-01T10:28:27.604Z,53.66
2022-09-01T10:29:27.426Z,55.11
2022-09-01T10:30:27.432Z,52.85
2022-09-01T10:31:29.558Z,53.17
2022-09-01T10:32:36.991Z,55.75
2022-09-01T10:33:29.397Z,52.21
2022-09-01T10:34:27.397Z,53.82
2022-09-01T10:35:27.446Z,55.43
2022-09-01T10:36:27.662Z,53.82
2022-09-01T10:37:27.718Z,57.36
2022-09-01T10:38:28.361Z,61.23
2022-09-01T10:39:28.692Z,60.26
2022-09-01T10:40:33.333Z,53.82
2022-09-01T10:41:29.340Z,52.53
2022-09-01T10:42:27.340Z,52.37
2022-09-01T10:43:27.348Z,54.95
2022-09-01T10:44:31.353Z,57.04
2022-09-01T10:45:27.317Z,52.69
2022-09-01T10:46:40.790Z,53.66
2022-09-01T10:47:29.561Z,54.30
2022-09-01T10:48:31.103Z,56.07
2022-09-01T10:49:29.630Z,54.46
2022-09-01T10:50:29.388Z,55.91
2022-09-01T10:51:35.478Z,54.95
2022-09-01T10:52:29.356Z,54.79
2022-09-01T10:53:28.271Z,54.79
2022-09-01T10:54:27.260Z,54.95
2022-09-01T10:55:27.301Z,55.11
2022-09-01T10:56:35.488Z,57.52
2022-09-01T10:57:30.623Z,55.27
2022-09-01T10:59:31.506Z,55.75
2022-09-01T11:00:35.530Z,53.50
2022-09-01T11:01:47.785Z,53.17
2022-09-01T11:02:35.690Z,52.37
2022-09-01T11:03:30.271Z,61.87
2022-09-01T11:04:28.287Z,55.27
2022-09-01T11:05:30.079Z,58.01
2022-09-01T11:06:33.148Z,52.53
2022-09-01T11:07:50.379Z,56.24
2022-09-01T11:08:28.505Z,60.75
2022-09-01T11:09:27.160Z,64.29
2022-09-01T11:10:34.703Z,61.39
2022-09-01T11:11:29.150Z,61.39
2022-09-01T11:12:29.280Z,66.55
2022-09-01T11:13:27.136Z,54.30
2022-09-01T11:14:27.127Z,54.14
2022-09-01T11:15:27.124Z,55.75
2022-09-01T11:17:29.235Z,60.59
2022-09-01T11:18:27.403Z,54.30
2022-09-01T11:19:27.486Z,54.62
2022-09-01T11:20:27.092Z,52.37
2022-09-01T11:21:27.084Z,52.85
2022-09-01T11:22:27.087Z,57.52
2022-09-01T11:23:27.702Z,52.05
2022-09-01T11:24:28.080Z,53.33
2022-09-01T11:25:38.581Z,57.04
2022-09-01T11:26:28.051Z,57.36
2022-09-01T11:27:27.046Z,62.36
2022-09-01T11:28:27.045Z,64.29
2022-09-01T11:29:27.037Z,63.97
2022-09-01T11:30:27.020Z,54.79
2022-09-01T11:31:27.087Z,54.95
2022-09-01T11:32:27.012Z,53.50
2022-09-01T11:33:27.018Z,56.56
2022-09-01T11:34:27.000Z,54.46
2022-09-01T11:35:26.996Z,54.30
2022-09-01T11:36:26.989Z,68.64
2022-09-01T11:37:27.768Z,69.13
2022-09-01T11:38:26.987Z,54.62
2022-09-01T11:39:26.976Z,54.62
2022-09-01T11:40:29.693Z,54.62
2022-09-01T11:41:26.970Z,54.14
2022-09-01T11:42:26.953Z,57.20
2022-09-01T11:43:27.169Z,53.98
2022-09-01T11:44:26.948Z,70.74
2022-09-01T11:45:26.976Z,71.06
2022-09-01T11:46:26.922Z,61.07
2022-09-01T11:47:26.916Z,53.17
2022-09-01T11:48:26.908Z,59.14
2022-09-01T11:49:26.895Z,58.01
2022-09-01T11:50:26.897Z,60.42
2022-09-01T11:51:26.901Z,61.39
2022-09-01T11:52:26.884Z,58.81
2022-09-01T11:53:26.878Z,57.36
2022-09-01T11:54:26.881Z,54.79
2022-09-01T11:55:26.864Z,54.30
2022-09-01T11:56:26.869Z,53.98
2022-09-01T11:57:26.848Z,56.72
2022-09-01T11:58:26.850Z,53.33
2022-09-01T11:59:26.843Z,54.62
2022-09-01T12:00:26.835Z,54.14
2022-09-01T12:01:26.828Z,57.04
2022-09-01T12:02:27.017Z,55.75
2022-09-01T12:03:27.837Z,55.59
2022-09-01T12:04:26.807Z,53.98
2022-09-01T12:05:26.824Z,52.21
2022-09-01T12:06:26.803Z,53.66
2022-09-01T12:07:26.799Z,54.30
2022-09-01T12:08:26.787Z,53.17
2022-09-01T12:09:26.776Z,56.72
2022-09-01T12:10:26.795Z,52.85
2022-09-01T12:11:26.776Z,52.37
2022-09-01T12:12:26.751Z,66.23
2022-09-01T12:13:26.747Z,62.84
2022-09-01T12:14:29.857Z,57.85
2022-09-01T12:15:27.756Z,57.36
2022-09-01T12:16:26.797Z,52.69
2022-09-01T12:17:26.727Z,58.97
2022-09-01T12:18:26.713Z,53.33
2022-09-01T12:19:26.718Z,63.49
2022-09-01T12:20:29.141Z,55.27
2022-09-01T12:21:27.700Z,54.79
2022-09-01T12:22:26.695Z,54.30
2022-09-01T12:23:26.707Z,55.43
2022-09-01T12:24:26.687Z,51.08
2022-09-01T12:25:26.667Z,60.42
2022-09-01T12:26:26.680Z,56.56
2022-09-01T12:27:26.655Z,58.33
2022-09-01T12:28:26.660Z,53.98
2022-09-01T12:29:31.447Z,53.82
2022-09-01T12:30:27.639Z,53.66
2022-09-01T12:31:26.738Z,57.52
2022-09-01T12:32:26.631Z,55.27
2022-09-01T12:33:26.626Z,52.85
2022-09-01T12:34:26.615Z,55.43
2022-09-01T12:35:26.616Z,59.46
2022-09-01T12:36:26.620Z,54.62
2022-09-01T12:37:26.587Z,61.07
2022-09-01T12:38:26.596Z,57.52
2022-09-01T12:39:26.583Z,55.27
2022-09-01T12:40:26.601Z,57.85
2022-09-01T12:41:28.721Z,54.46
2022-09-01T12:42:26.575Z,57.69
2022-09-01T12:43:26.560Z,54.95
2022-09-01T12:44:26.567Z,57.69
2022-09-01T12:45:26.581Z,65.58
2022-09-01T12:46:26.547Z,54.30
2022-09-01T12:47:26.964Z,57.36
2022-09-01T12:48:27.536Z,56.07
2022-09-01T12:49:28.799Z,56.72
2022-09-01T12:50:26.522Z,59.46
2022-09-01T12:51:30.903Z,53.17
2022-09-01T12:52:28.528Z,55.27
2022-09-01T12:53:26.508Z,55.11
2022-09-01T12:54:26.511Z,55.27
2022-09-01T12:56:28.491Z,57.85
2022-09-01T12:57:26.496Z,61.23
2022-09-01T12:58:26.484Z,58.97
2022-09-01T12:59:35.886Z,54.62
2022-09-01T13:00:27.467Z,54.14
2022-09-01T13:01:26.498Z,57.04
2022-09-01T13:02:26.776Z,56.88
2022-09-01T13:03:26.447Z,55.59
2022-09-01T13:04:26.435Z,54.46
2022-09-01T13:05:31.210Z,53.17
2022-09-01T13:06:27.423Z,59.14
2022-09-01T13:07:26.402Z,55.43
2022-09-01T13:08:27.168Z,52.85
2022-09-01T13:09:26.407Z,56.88
2022-09-01T13:10:26.399Z,59.14
2022-09-01T13:11:26.531Z,57.69
2022-09-01T13:12:26.391Z,54.62